Terminal Aerodrome Forecast
Issued by NWS Portland, OR

Home | Current Version | Previous Version | Text Only | Print | Product List | Glossary On
Versions: 1 2 3 4 5 6 7 8 9 10 11 12 13
000
FTUS46 KPQR 270541
TAFSLE
TAF
KSLE 270541Z 2706/2806 28007KT P6SM SCT040
     FM271100 31003KT P6SM OVC030
     FM271300 VRB03KT P6SM BKN015
     FM271800 34002KT P6SM OVC025
     FM272000 32004KT P6SM BKN050
     FM272100 32005KT P6SM SKC=

USA.gov is the U.S. government's official web portal to all federal, state and local government web resources and services.